createdAt,value
2023-01-29T00:00:13.933Z,-1.41173
2023-01-29T00:05:26.903Z,-1.43951
2023-01-29T00:10:28.683Z,-1.48893
2023-01-29T00:15:29.627Z,-1.63848
2023-01-29T00:20:30.530Z,-1.62265
2023-01-29T00:25:31.550Z,-1.53609
2023-01-29T00:30:32.478Z,-1.46341
2023-01-29T00:35:33.379Z,-1.59939
2023-01-29T00:40:34.302Z,-1.58551
2023-01-29T00:45:35.339Z,-1.58938
2023-01-29T00:50:36.272Z,-1.63299
2023-01-29T00:55:37.198Z,-1.55288
2023-01-29T01:00:38.178Z,-1.47601
2023-01-29T01:05:39.235Z,-1.4014
2023-01-29T01:10:40.918Z,-1.41529
2023-01-29T01:15:41.853Z,-1.39494
2023-01-29T01:20:42.778Z,-1.39978
2023-01-29T01:25:43.768Z,-1.45857
2023-01-29T01:30:44.744Z,-1.41141
2023-01-29T01:35:45.659Z,-1.48182
2023-01-29T01:40:46.600Z,-1.47116
2023-01-29T01:45:47.560Z,-1.42368
2023-01-29T01:50:48.464Z,-1.39914
2023-01-29T01:55:49.403Z,-1.29513
2023-01-29T02:00:50.432Z,-1.2441
2023-01-29T02:05:51.382Z,-1.25572
2023-01-29T02:10:52.270Z,-1.38589
2023-01-29T02:15:53.240Z,-1.40915
2023-01-29T02:20:54.172Z,-1.38783
2023-01-29T02:25:55.093Z,-1.39235
2023-01-29T02:30:56.038Z,-1.41496
2023-01-29T02:35:57.036Z,-1.44532
2023-01-29T02:40:57.984Z,-1.42013
2023-01-29T02:45:58.953Z,-1.46212
2023-01-29T02:50:59.956Z,-1.34584
2023-01-29T02:56:00.882Z,-1.2596
2023-01-29T03:01:01.916Z,-1.22956
2023-01-29T03:06:02.845Z,-1.31742
2023-01-29T03:11:03.783Z,-1.36264
2023-01-29T03:16:04.751Z,-1.3074
2023-01-29T03:21:05.720Z,-1.27381
2023-01-29T03:26:06.693Z,-1.34423
2023-01-29T03:31:07.733Z,-1.34713
2023-01-29T03:36:08.739Z,-1.26735
2023-01-29T03:41:09.949Z,-1.25766
2023-01-29T03:46:11.220Z,-1.32291
2023-01-29T03:51:12.386Z,-1.28835
2023-01-29T03:56:13.329Z,-1.30676
2023-01-29T04:01:14.278Z,-1.33454
2023-01-29T04:06:15.418Z,-1.34229
2023-01-29T04:11:16.357Z,-1.36457
2023-01-29T04:16:17.300Z,-1.30547
2023-01-29T04:21:18.243Z,-1.30999
2023-01-29T04:26:19.195Z,-1.36328
2023-01-29T04:31:20.291Z,-1.26154
2023-01-29T04:36:21.283Z,-1.21018
2023-01-29T04:41:22.193Z,-1.18822
2023-01-29T04:46:23.291Z,-1.22052
2023-01-29T04:51:24.209Z,-1.16431
2023-01-29T04:56:25.148Z,-1.09971
2023-01-29T05:01:26.124Z,-1.05611
2023-01-29T05:06:27.077Z,-1.11683
2023-01-29T05:11:27.983Z,-1.14493
2023-01-29T05:16:28.933Z,-1.07581
2023-01-29T05:21:29.840Z,-1.03931
2023-01-29T05:26:30.822Z,-1.04125
2023-01-29T05:31:31.777Z,-1.05643
2023-01-29T05:36:32.718Z,-1.05385
2023-01-29T05:41:33.646Z,-1.01154
2023-01-29T05:46:34.632Z,-1.00572
2023-01-29T05:51:35.578Z,-1.01573
2023-01-29T05:56:36.472Z,-1.0981
2023-01-29T06:01:37.447Z,-1.05159
2023-01-29T06:06:38.574Z,-1.08906
2023-01-29T06:11:39.501Z,-1.27672
2023-01-29T06:16:40.416Z,-1.15592
2023-01-29T06:21:41.305Z,-1.03964
2023-01-29T06:26:42.228Z,-1.00055
2023-01-29T06:31:43.302Z,-1.00992
2023-01-29T06:36:44.319Z,-0.94694
2023-01-29T06:41:45.238Z,-0.98893
2023-01-29T06:46:46.167Z,-0.95275
2023-01-29T06:51:47.082Z,-0.89332
2023-01-29T06:56:48.161Z,-0.96987
2023-01-29T07:01:49.222Z,-0.96922
2023-01-29T07:06:50.207Z,-0.98537
2023-01-29T07:11:51.100Z,-0.96438
2023-01-29T07:16:52.008Z,-0.81806
2023-01-29T07:21:52.928Z,-0.79577
2023-01-29T07:26:53.845Z,-0.78963
2023-01-29T07:31:54.914Z,-0.8116
2023-01-29T07:36:55.878Z,-0.83098
2023-01-29T07:41:56.789Z,-0.82549
2023-01-29T07:46:57.703Z,-0.66883
2023-01-29T07:51:58.609Z,-0.67206
2023-01-29T07:56:59.533Z,-0.73279
2023-01-29T08:02:00.540Z,-0.72956
2023-01-29T08:07:01.672Z,-0.8158
2023-01-29T08:12:02.611Z,-0.78447
2023-01-29T08:17:03.572Z,-0.76089
2023-01-29T08:22:04.491Z,-0.74506
2023-01-29T08:27:05.451Z,-0.69952
2023-01-29T08:32:06.398Z,-0.60875
2023-01-29T08:37:07.334Z,-0.55029
2023-01-29T08:42:08.253Z,-0.49441
2023-01-29T08:47:09.151Z,-0.36586
2023-01-29T08:52:10.238Z,-0.33388
2023-01-29T08:57:11.471Z,-0.36941
2023-01-29T09:02:12.441Z,-0.36359
2023-01-29T09:07:13.398Z,-0.29415
2023-01-29T09:12:14.325Z,-0.24634
2023-01-29T09:17:15.273Z,-0.20791
2023-01-29T09:22:16.207Z,-0.1517
2023-01-29T09:27:17.135Z,-0.14008
2023-01-29T09:32:37.645Z,-0.11973
2023-01-29T09:37:51.036Z,-0.03187
2023-01-29T09:42:51.987Z,0.03402
2023-01-29T09:47:52.932Z,0.15709
2023-01-29T09:52:53.936Z,0.16549
2023-01-29T09:57:54.879Z,0.3538
2023-01-29T10:02:55.805Z,0.58991
2023-01-29T10:07:56.699Z,0.69941
2023-01-29T10:12:57.578Z,0.73042
2023-01-29T10:17:58.501Z,0.96622
2023-01-29T10:22:59.416Z,1.29698
2023-01-29T10:28:00.372Z,1.39323
2023-01-29T10:33:01.426Z,1.65972
2023-01-29T10:38:02.389Z,2.24534
2023-01-29T10:43:03.333Z,2.29282
2023-01-29T10:48:04.311Z,2.53476
2023-01-29T10:53:05.367Z,2.62003
2023-01-29T10:58:06.301Z,2.57869
2023-01-29T11:03:12.483Z,2.86811
2023-01-29T11:08:19.079Z,3.01928
2023-01-29T11:13:19.995Z,3.04867
2023-01-29T11:18:20.944Z,3.01928
2023-01-29T11:23:21.961Z,2.9915
2023-01-29T11:28:22.936Z,3.01475
2023-01-29T11:33:23.941Z,2.99117
2023-01-29T11:38:24.889Z,2.92076
2023-01-29T11:43:25.921Z,2.94369
2023-01-29T11:48:26.885Z,2.99505
2023-01-29T11:53:27.845Z,2.93045
2023-01-29T11:58:28.838Z,2.97018
2023-01-29T12:03:29.816Z,2.90008
2023-01-29T12:08:30.839Z,2.93142
2023-01-29T12:13:31.735Z,2.80641
2023-01-29T12:18:32.673Z,2.88232
2023-01-29T12:23:33.704Z,3.0758
2023-01-29T12:28:34.635Z,2.99053
2023-01-29T12:33:35.794Z,3.0729
2023-01-29T12:38:36.990Z,2.96985
2023-01-29T12:43:37.910Z,3.00054
2023-01-29T12:48:38.825Z,3.00732
2023-01-29T12:53:39.756Z,2.83742
2023-01-29T12:58:40.751Z,2.70143
2023-01-29T13:03:41.686Z,2.63392
2023-01-29T13:08:42.602Z,2.63844
2023-01-29T13:13:43.591Z,2.70111
2023-01-29T13:18:44.599Z,2.49955
2023-01-29T13:23:45.523Z,2.43817
2023-01-29T13:28:46.515Z,2.49179
2023-01-29T13:33:47.574Z,2.63101
2023-01-29T13:38:48.504Z,2.79381
2023-01-29T13:43:49.459Z,2.62035
2023-01-29T13:48:50.413Z,2.56512
2023-01-29T13:53:51.325Z,2.40717
2023-01-29T13:58:52.284Z,2.38455
2023-01-29T14:04:04.317Z,2.2195
2023-01-29T14:09:06.096Z,2.15425
2023-01-29T14:14:07.020Z,2.06477
2023-01-29T14:19:07.967Z,2.00469
2023-01-29T14:24:08.900Z,1.95495
2023-01-29T14:29:10.083Z,1.93363
2023-01-29T14:34:11.687Z,1.88453
2023-01-29T14:39:12.950Z,1.74079
2023-01-29T14:44:13.926Z,1.75404
2023-01-29T14:49:14.862Z,1.69912
2023-01-29T14:54:15.859Z,1.68136
2023-01-29T14:59:16.792Z,1.61547
2023-01-29T15:04:17.798Z,1.484
2023-01-29T15:09:18.764Z,1.45235
2023-01-29T15:14:19.775Z,1.39679
2023-01-29T15:19:20.728Z,1.31797
2023-01-29T15:24:21.644Z,1.31022
2023-01-29T15:29:22.693Z,1.28664
2023-01-29T15:34:23.658Z,1.22947
2023-01-29T15:39:24.647Z,1.11706
2023-01-29T15:44:25.597Z,1.12772
2023-01-29T15:49:26.628Z,0.97526
2023-01-29T15:54:27.548Z,0.88288
2023-01-29T15:59:28.486Z,0.79535
2023-01-29T16:04:29.400Z,0.75497
2023-01-29T16:09:30.376Z,0.75756
2023-01-29T16:14:31.330Z,0.70135
2023-01-29T16:19:32.269Z,0.76434
2023-01-29T16:24:33.176Z,0.75013
2023-01-29T16:29:34.082Z,0.71976
2023-01-29T16:34:35.075Z,0.70394
2023-01-29T16:39:35.992Z,0.67067
2023-01-29T16:44:36.914Z,0.76272
2023-01-29T16:49:37.944Z,0.77177
2023-01-29T16:54:38.861Z,0.85252
2023-01-29T16:59:39.811Z,0.7469
2023-01-29T17:04:41.784Z,0.63384
2023-01-29T17:09:42.827Z,0.67583
2023-01-29T17:14:43.788Z,0.85801
2023-01-29T17:19:44.740Z,0.93941
2023-01-29T17:24:50.755Z,0.85026
2023-01-29T17:29:52.702Z,0.83282
2023-01-29T17:34:54.418Z,0.81279
2023-01-29T17:39:56.044Z,0.68875
2023-01-29T17:44:57.427Z,0.70103
2023-01-29T17:49:58.410Z,0.73914
2023-01-29T17:54:59.509Z,0.70038
2023-01-29T18:00:00.733Z,0.64903
2023-01-29T18:05:01.805Z,0.60348
2023-01-29T18:10:02.727Z,0.54566
2023-01-29T18:15:03.910Z,0.58281
2023-01-29T18:20:04.993Z,0.56827
2023-01-29T18:25:05.915Z,0.60413
2023-01-29T18:30:06.855Z,0.47234
2023-01-29T18:35:07.809Z,0.52951
2023-01-29T18:40:08.936Z,0.48849
2023-01-29T18:45:09.973Z,0.5673
2023-01-29T18:50:11.498Z,0.48074
2023-01-29T18:55:13.428Z,0.4465
2023-01-29T19:00:14.361Z,0.42777
2023-01-29T19:05:15.716Z,0.46491
2023-01-29T19:10:16.817Z,0.47589
2023-01-29T19:15:18.097Z,0.45328
2023-01-29T19:20:19.288Z,0.49883
2023-01-29T19:25:20.645Z,0.50787
2023-01-29T19:30:21.803Z,0.56957
2023-01-29T19:35:22.810Z,0.57215
2023-01-29T19:40:23.789Z,0.52402
2023-01-29T19:45:42.947Z,0.5069
2023-01-29T19:50:51.025Z,0.50529
2023-01-29T19:55:52.036Z,0.52305
2023-01-29T20:00:53.164Z,0.55277
2023-01-29T20:05:59.233Z,0.52241
2023-01-29T20:11:00.288Z,0.58022
2023-01-29T20:16:01.272Z,0.53048
2023-01-29T20:21:02.361Z,0.54631
2023-01-29T20:26:03.541Z,0.52661
2023-01-29T20:31:04.639Z,0.49075
2023-01-29T20:36:05.671Z,0.50981
2023-01-29T20:41:06.654Z,0.49657
2023-01-29T20:46:07.614Z,0.39934
2023-01-29T20:51:08.711Z,0.23978
2023-01-29T20:56:09.660Z,0.25464
2023-01-29T21:01:12.545Z,0.2963
2023-01-29T21:06:13.563Z,0.35251
2023-01-29T21:11:14.614Z,0.27305
2023-01-29T21:16:15.585Z,0.30696
2023-01-29T21:21:16.630Z,0.12059
2023-01-29T21:26:17.591Z,0.1503
2023-01-29T21:31:18.624Z,0.15257
2023-01-29T21:36:19.588Z,0.13965
2023-01-29T21:41:20.506Z,0.17291
2023-01-29T21:46:21.476Z,0.18874
2023-01-29T21:51:22.701Z,0.12027
2023-01-29T21:56:23.716Z,0.09636
2023-01-29T22:01:37.746Z,0.14384
2023-01-29T22:06:39.595Z,0.16807
2023-01-29T22:11:40.534Z,0.10702
2023-01-29T22:16:41.487Z,0.12188
2023-01-29T22:21:42.405Z,0.16581
2023-01-29T22:26:43.337Z,0.07666
2023-01-29T22:31:44.280Z,0.10476
2023-01-29T22:36:45.188Z,0.19488
2023-01-29T22:41:46.087Z,0.13092
2023-01-29T22:46:47.080Z,0.21264
2023-01-29T22:51:48.117Z,0.19068
2023-01-29T22:56:49.039Z,0.18939
2023-01-29T23:01:49.997Z,0.1629
2023-01-29T23:06:50.937Z,0.00851
2023-01-29T23:11:51.874Z,0.02013
2023-01-29T23:16:52.823Z,-0.10325
2023-01-29T23:21:53.757Z,-0.06449
2023-01-29T23:26:54.719Z,-0.02832
2023-01-29T23:31:55.673Z,-0.05933
2023-01-29T23:36:56.645Z,0.02336
2023-01-29T23:41:57.584Z,0.05793
2023-01-29T23:46:58.538Z,0.00108
2023-01-29T23:51:59.493Z,0.01238
2023-01-29T23:57:00.434Z,0.02175
